createdAt,value
2023-04-08T00:00:20.148Z,99.90
2023-04-08T00:02:47.347Z,99.90
2023-04-08T00:05:13.943Z,99.90
2023-04-08T00:07:40.468Z,99.90
2023-04-08T00:10:07.827Z,99.90
2023-04-08T00:12:34.501Z,99.90
2023-04-08T00:15:00.990Z,99.90
2023-04-08T00:17:27.552Z,99.90
2023-04-08T00:19:55.217Z,99.90
2023-04-08T00:22:22.090Z,99.90
2023-04-08T00:24:48.598Z,99.90
2023-04-08T00:27:15.398Z,99.90
2023-04-08T00:29:41.895Z,99.90
2023-04-08T00:32:08.455Z,99.90
2023-04-08T00:34:35.432Z,99.90
2023-04-08T00:37:02.127Z,99.90
2023-04-08T00:39:28.685Z,99.90
2023-04-08T00:41:56.101Z,99.90
2023-04-08T00:44:22.704Z,99.90
2023-04-08T00:46:49.320Z,99.90
2023-04-08T00:49:17.355Z,99.90
2023-04-08T00:51:43.892Z,99.90
2023-04-08T00:54:10.409Z,99.90
2023-04-08T00:56:37.448Z,99.90
2023-04-08T00:59:04.933Z,99.90
2023-04-08T01:01:44.771Z,99.90
2023-04-08T01:04:21.159Z,99.90
2023-04-08T01:07:12.315Z,99.90
2023-04-08T01:09:42.363Z,99.90
2023-04-08T01:12:12.415Z,99.90
2023-04-08T01:14:42.157Z,99.90
2023-04-08T01:17:09.695Z,99.90
2023-04-08T01:19:39.872Z,99.90
2023-04-08T01:22:48.087Z,99.90
2023-04-08T01:25:21.934Z,99.90
2023-04-08T01:27:49.697Z,99.90
2023-04-08T01:30:20.284Z,99.90
2023-04-08T01:32:47.648Z,99.90
2023-04-08T01:35:15.925Z,99.90
2023-04-08T01:37:43.071Z,99.90
2023-04-08T01:40:10.917Z,99.90
2023-04-08T01:42:38.544Z,99.90
2023-04-08T01:45:07.181Z,99.90
2023-04-08T01:47:35.569Z,99.90
2023-04-08T01:50:03.358Z,99.90
2023-04-08T01:52:30.628Z,99.90
2023-04-08T01:54:57.223Z,99.90
2023-04-08T01:57:33.721Z,99.90
2023-04-08T02:00:04.045Z,99.90
2023-04-08T02:02:33.311Z,99.90
2023-04-08T02:05:00.142Z,99.90
2023-04-08T02:07:26.687Z,99.90
2023-04-08T02:09:53.221Z,99.90
2023-04-08T02:12:20.619Z,99.90
2023-04-08T02:14:47.762Z,99.90
2023-04-08T02:17:25.399Z,99.90
2023-04-08T02:20:07.380Z,99.90
2023-04-08T02:22:46.031Z,99.90
2023-04-08T02:25:15.544Z,99.90
2023-04-08T02:27:43.515Z,99.90
2023-04-08T02:30:12.416Z,99.90
2023-04-08T02:32:39.777Z,99.90
2023-04-08T02:35:06.986Z,99.90
2023-04-08T02:37:34.018Z,99.90
2023-04-08T02:40:00.841Z,99.90
2023-04-08T02:42:27.350Z,99.90
2023-04-08T02:44:54.237Z,99.90
2023-04-08T02:47:20.892Z,99.90
2023-04-08T02:49:47.468Z,99.90
2023-04-08T02:52:13.991Z,99.90
2023-04-08T02:54:40.655Z,99.90
2023-04-08T02:57:07.150Z,99.90
2023-04-08T02:59:33.657Z,99.90
2023-04-08T03:02:00.405Z,99.90
2023-04-08T03:04:27.078Z,99.90
2023-04-08T03:06:53.644Z,99.90
2023-04-08T03:09:20.443Z,99.90
2023-04-08T03:11:52.451Z,99.90
2023-04-08T03:14:18.988Z,99.90
2023-04-08T03:16:45.628Z,99.90
2023-04-08T03:19:12.189Z,99.90
2023-04-08T03:21:38.675Z,99.90
2023-04-08T03:24:05.510Z,99.90
2023-04-08T03:26:32.052Z,99.90
2023-04-08T03:28:58.578Z,99.90
2023-04-08T03:31:25.847Z,99.90
2023-04-08T03:33:52.397Z,99.90
2023-04-08T03:36:18.907Z,99.90
2023-04-08T03:38:45.747Z,99.90
2023-04-08T03:41:12.291Z,99.90
2023-04-08T03:43:38.885Z,99.90
2023-04-08T03:46:05.827Z,99.90
2023-04-08T03:48:32.627Z,99.90
2023-04-08T03:50:59.206Z,99.90
2023-04-08T03:53:27.927Z,99.90
2023-04-08T03:55:55.222Z,99.90
2023-04-08T03:58:21.915Z,99.90
2023-04-08T04:00:48.505Z,99.90
2023-04-08T04:03:15.138Z,99.90
2023-04-08T04:05:41.766Z,99.90
2023-04-08T04:08:09.364Z,99.90
2023-04-08T04:10:35.976Z,99.90
2023-04-08T04:13:02.475Z,99.90
2023-04-08T04:15:29.104Z,99.90
2023-04-08T04:17:55.658Z,99.90
2023-04-08T04:20:22.293Z,99.90
2023-04-08T04:22:48.871Z,99.90
2023-04-08T04:25:15.543Z,99.90
2023-04-08T04:27:42.076Z,99.90
2023-04-08T04:30:09.477Z,99.90
2023-04-08T04:32:36.116Z,99.90
2023-04-08T04:35:02.831Z,99.90
2023-04-08T04:37:29.342Z,99.90
2023-04-08T04:39:55.884Z,99.90
2023-04-08T04:42:22.495Z,99.90
2023-04-08T04:44:49.218Z,99.90
2023-04-08T04:47:16.279Z,99.90
2023-04-08T04:49:42.844Z,99.90
2023-04-08T04:52:09.381Z,99.90
2023-04-08T04:54:36.173Z,99.90
2023-04-08T04:57:02.895Z,99.90
2023-04-08T04:59:29.481Z,99.90
2023-04-08T05:01:57.549Z,99.90
2023-04-08T05:04:24.942Z,99.90
2023-04-08T05:06:51.705Z,99.90
2023-04-08T05:09:18.328Z,99.90
2023-04-08T05:11:44.853Z,99.90
2023-04-08T05:14:11.430Z,99.90
2023-04-08T05:16:38.668Z,99.90
2023-04-08T05:19:05.276Z,99.90
2023-04-08T05:21:32.559Z,99.90
2023-04-08T05:23:59.389Z,99.90
2023-04-08T05:26:26.296Z,99.90
2023-04-08T05:28:52.956Z,99.90
2023-04-08T05:31:20.508Z,99.90
2023-04-08T05:33:48.000Z,99.90
2023-04-08T05:36:15.214Z,99.90
2023-04-08T05:38:44.414Z,99.90
2023-04-08T05:41:11.316Z,99.90
2023-04-08T05:43:37.829Z,99.90
2023-04-08T05:46:08.608Z,99.90
2023-04-08T05:48:35.713Z,99.90
2023-04-08T05:51:02.649Z,99.90
2023-04-08T05:53:29.511Z,99.90
2023-04-08T05:55:56.153Z,99.90
2023-04-08T05:58:22.711Z,99.90
2023-04-08T06:00:49.222Z,99.90
2023-04-08T06:03:17.446Z,99.90
2023-04-08T06:05:45.584Z,99.90
2023-04-08T06:08:12.103Z,99.90
2023-04-08T06:10:38.641Z,99.90
2023-04-08T06:13:05.217Z,99.90
2023-04-08T06:15:32.479Z,99.90
2023-04-08T06:17:59.234Z,99.90
2023-04-08T06:20:26.263Z,99.90
2023-04-08T06:22:52.794Z,99.90
2023-04-08T06:25:19.317Z,99.90
2023-04-08T06:27:45.833Z,99.90
2023-04-08T06:30:12.625Z,99.90
2023-04-08T06:32:39.224Z,99.90
2023-04-08T06:35:07.376Z,99.90
2023-04-08T06:37:38.216Z,99.90
2023-04-08T06:40:06.212Z,99.90
2023-04-08T06:42:32.723Z,99.90
2023-04-08T06:44:59.262Z,99.90
2023-04-08T06:47:26.330Z,99.90
2023-04-08T06:49:54.194Z,99.90
2023-04-08T06:52:21.127Z,99.90
2023-04-08T06:54:47.933Z,99.90
2023-04-08T06:57:14.450Z,99.90
2023-04-08T06:59:41.148Z,99.90
2023-04-08T07:02:07.813Z,99.90
2023-04-08T07:04:34.613Z,99.90
2023-04-08T07:07:01.457Z,99.90
2023-04-08T07:09:28.452Z,99.90
2023-04-08T07:11:55.661Z,99.90
2023-04-08T07:14:22.413Z,99.90
2023-04-08T07:16:49.011Z,99.90
2023-04-08T07:19:15.847Z,99.90
2023-04-08T07:21:42.477Z,99.90
2023-04-08T07:24:09.047Z,99.90
2023-04-08T07:26:35.612Z,99.90
2023-04-08T07:29:02.172Z,99.90
2023-04-08T07:31:28.766Z,99.90
2023-04-08T07:33:55.336Z,99.90
2023-04-08T07:36:21.970Z,99.90
2023-04-08T07:38:48.624Z,99.90
2023-04-08T07:41:15.640Z,99.90
2023-04-08T07:43:42.166Z,99.90
2023-04-08T07:46:09.039Z,99.90
2023-04-08T07:48:35.850Z,99.90
2023-04-08T07:51:11.112Z,99.90
2023-04-08T07:53:39.389Z,99.90
2023-04-08T07:56:13.981Z,99.90
2023-04-08T07:58:41.382Z,99.90
2023-04-08T08:01:22.243Z,99.90
2023-04-08T08:03:53.403Z,99.90
2023-04-08T08:06:20.747Z,99.90
2023-04-08T08:08:47.520Z,99.90
2023-04-08T08:11:14.089Z,99.90
2023-04-08T08:13:40.776Z,99.90
2023-04-08T08:16:08.965Z,99.90
2023-04-08T08:18:36.289Z,99.90
2023-04-08T08:21:03.656Z,99.90
2023-04-08T08:23:30.301Z,99.90
2023-04-08T08:26:06.189Z,99.90
2023-04-08T08:28:33.188Z,99.90
2023-04-08T08:30:59.802Z,99.90
2023-04-08T08:33:26.393Z,99.90
2023-04-08T08:35:53.055Z,99.90
2023-04-08T08:38:19.666Z,99.90
2023-04-08T08:40:46.332Z,99.90
2023-04-08T08:43:14.080Z,99.90
2023-04-08T08:45:41.889Z,99.90
2023-04-08T08:48:09.131Z,99.90
2023-04-08T08:50:36.026Z,99.90
2023-04-08T08:53:03.081Z,99.90
2023-04-08T08:56:00.024Z,99.90
2023-04-08T08:58:22.343Z,99.90
2023-04-08T09:00:48.849Z,99.90
2023-04-08T09:03:20.078Z,99.90
2023-04-08T09:06:01.571Z,99.90
2023-04-08T09:08:36.237Z,99.90
2023-04-08T09:11:14.715Z,99.90
2023-04-08T09:13:41.927Z,99.90
2023-04-08T09:16:10.954Z,99.90
2023-04-08T09:18:38.769Z,99.90
2023-04-08T09:21:06.578Z,99.90
2023-04-08T09:23:52.898Z,99.90
2023-04-08T09:26:22.744Z,99.90
2023-04-08T09:29:25.178Z,99.90
2023-04-08T09:31:57.575Z,99.90
2023-04-08T09:34:25.072Z,99.90
2023-04-08T09:36:52.529Z,99.90
2023-04-08T09:39:19.522Z,99.90
2023-04-08T09:41:49.869Z,99.90
2023-04-08T09:44:17.013Z,99.90
2023-04-08T09:46:49.426Z,99.90
2023-04-08T09:49:25.334Z,99.90
2023-04-08T09:52:07.173Z,99.90
2023-04-08T09:54:52.510Z,99.90
2023-04-08T09:57:31.846Z,99.90
2023-04-08T10:00:22.546Z,99.90
2023-04-08T10:03:15.837Z,99.90
2023-04-08T10:05:43.689Z,99.90
2023-04-08T10:08:10.594Z,99.90
2023-04-08T10:10:40.620Z,99.90
2023-04-08T10:13:07.919Z,99.90
2023-04-08T10:15:36.574Z,99.90
2023-04-08T10:18:03.151Z,99.90
2023-04-08T10:20:35.867Z,99.90
2023-04-08T10:23:09.466Z,99.90
2023-04-08T10:25:49.256Z,99.90
2023-04-08T10:28:18.509Z,99.90
2023-04-08T10:30:51.935Z,99.90
2023-04-08T10:33:30.526Z,99.90
2023-04-08T10:36:09.656Z,97.70
2023-04-08T10:38:36.208Z,97.20
2023-04-08T10:41:02.742Z,98.10
2023-04-08T10:43:33.937Z,97.20
2023-04-08T10:46:01.290Z,96.90
2023-04-08T10:48:29.083Z,96.90
2023-04-08T10:51:00.539Z,98.00
2023-04-08T10:53:31.256Z,97.70
2023-04-08T10:56:05.074Z,98.60
2023-04-08T10:58:31.635Z,97.30
2023-04-08T11:01:07.974Z,97.80
2023-04-08T11:03:36.811Z,98.00
2023-04-08T11:06:04.407Z,97.80
2023-04-08T11:08:34.923Z,97.10
2023-04-08T11:11:02.320Z,98.00
2023-04-08T11:13:29.242Z,98.30
2023-04-08T11:15:56.771Z,98.60
2023-04-08T11:18:24.074Z,99.40
2023-04-08T11:20:51.668Z,99.40
2023-04-08T11:23:18.547Z,98.70
2023-04-08T11:25:46.719Z,99.50
2023-04-08T11:28:14.636Z,99.90
2023-04-08T11:30:41.912Z,99.90
2023-04-08T11:33:08.999Z,99.80
2023-04-08T11:35:43.406Z,99.90
2023-04-08T11:38:11.370Z,99.90
2023-04-08T11:40:38.334Z,99.90
2023-04-08T11:43:12.611Z,99.90
2023-04-08T11:45:40.324Z,99.90
2023-04-08T11:48:14.507Z,99.90
2023-04-08T11:50:42.155Z,99.90
2023-04-08T11:53:19.740Z,99.90
2023-04-08T11:55:46.578Z,99.90
2023-04-08T11:58:13.085Z,99.90
2023-04-08T12:00:39.645Z,99.90
2023-04-08T12:03:07.303Z,99.90
2023-04-08T12:05:34.256Z,99.30
2023-04-08T12:08:00.744Z,99.70
2023-04-08T12:10:27.292Z,99.90
2023-04-08T12:12:53.877Z,99.90
2023-04-08T12:15:20.542Z,99.90
2023-04-08T12:17:47.173Z,99.90
2023-04-08T12:20:14.131Z,99.90
2023-04-08T12:22:40.658Z,99.90
2023-04-08T12:25:07.459Z,99.90
2023-04-08T12:27:34.037Z,99.90
2023-04-08T12:30:01.680Z,99.90
2023-04-08T12:32:28.957Z,99.90
2023-04-08T12:34:55.916Z,99.90
2023-04-08T12:37:22.464Z,99.90
2023-04-08T12:39:49.788Z,99.90
2023-04-08T12:42:16.693Z,99.00
2023-04-08T12:44:43.443Z,99.70
2023-04-08T12:47:10.234Z,99.90
2023-04-08T12:49:48.737Z,99.90
2023-04-08T12:52:17.088Z,99.90
2023-04-08T12:54:43.749Z,96.60
2023-04-08T12:57:10.424Z,96.40
2023-04-08T12:59:37.958Z,96.40
2023-04-08T13:02:04.527Z,95.50
2023-04-08T13:04:31.082Z,94.40
2023-04-08T13:06:57.613Z,94.90
2023-04-08T13:09:24.143Z,95.10
2023-04-08T13:11:50.992Z,95.60
2023-04-08T13:14:18.078Z,94.80
2023-04-08T13:16:44.675Z,93.90
2023-04-08T13:19:11.391Z,93.70
2023-04-08T13:21:37.910Z,94.20
2023-04-08T13:24:04.756Z,94.00
2023-04-08T13:26:31.260Z,93.50
2023-04-08T13:28:58.409Z,92.70
2023-04-08T13:31:25.787Z,91.40
2023-04-08T13:33:54.509Z,92.10
2023-04-08T13:36:22.773Z,92.60
2023-04-08T13:38:49.495Z,91.60
2023-04-08T13:41:16.186Z,91.60
2023-04-08T13:43:43.297Z,92.30
2023-04-08T13:46:09.903Z,90.90
2023-04-08T13:48:36.520Z,91.10
2023-04-08T13:51:03.384Z,91.00
2023-04-08T13:53:29.945Z,89.50
2023-04-08T13:55:58.829Z,84.90
2023-04-08T13:58:26.418Z,88.90
2023-04-08T14:00:53.135Z,90.80
2023-04-08T14:03:19.729Z,91.20
2023-04-08T14:05:46.531Z,91.00
2023-04-08T14:08:13.396Z,90.10
2023-04-08T14:10:41.568Z,90.40
2023-04-08T14:13:08.101Z,91.20
2023-04-08T14:15:34.622Z,91.40
2023-04-08T14:18:01.459Z,91.60
2023-04-08T14:20:28.254Z,92.10
2023-04-08T14:22:56.360Z,92.70
2023-04-08T14:25:22.878Z,93.00
2023-04-08T14:27:57.967Z,93.30
2023-04-08T14:30:26.622Z,93.40
2023-04-08T14:32:53.402Z,94.20
2023-04-08T14:35:20.111Z,94.00
2023-04-08T14:37:46.823Z,94.90
2023-04-08T14:40:13.544Z,95.40
2023-04-08T14:42:40.085Z,95.20
2023-04-08T14:45:07.325Z,95.30
2023-04-08T14:47:34.094Z,94.70
2023-04-08T14:50:00.877Z,94.60
2023-04-08T14:52:27.605Z,94.30
2023-04-08T14:54:54.165Z,93.30
2023-04-08T14:57:20.717Z,91.70
2023-04-08T14:59:47.309Z,90.90
2023-04-08T15:02:13.986Z,89.80
2023-04-08T15:04:40.807Z,90.00
2023-04-08T15:07:07.492Z,90.30
2023-04-08T15:09:34.189Z,90.60
2023-04-08T15:12:01.121Z,90.20
2023-04-08T15:14:27.858Z,90.40
2023-04-08T15:16:54.368Z,90.50
2023-04-08T15:19:21.013Z,88.80
2023-04-08T15:21:47.636Z,88.60
2023-04-08T15:24:14.256Z,86.30
2023-04-08T15:26:40.935Z,85.70
2023-04-08T15:29:07.861Z,84.60
2023-04-08T15:31:35.176Z,83.60
2023-04-08T15:34:02.577Z,83.60
2023-04-08T15:36:30.390Z,85.50
2023-04-08T15:38:56.975Z,86.20
2023-04-08T15:41:23.564Z,87.20
2023-04-08T15:43:50.196Z,87.10
2023-04-08T15:46:23.447Z,88.30
2023-04-08T15:48:50.628Z,88.00
2023-04-08T15:51:17.559Z,89.70
2023-04-08T15:53:44.175Z,89.10
2023-04-08T15:56:14.738Z,89.00
2023-04-08T15:58:41.861Z,89.50
2023-04-08T16:01:08.432Z,90.20
2023-04-08T16:03:35.345Z,90.00
2023-04-08T16:06:02.196Z,90.20
2023-04-08T16:08:29.382Z,90.90
2023-04-08T16:11:06.116Z,91.50
2023-04-08T16:13:34.002Z,91.50
2023-04-08T16:16:04.373Z,92.40
2023-04-08T16:18:31.111Z,92.80
2023-04-08T16:20:57.885Z,93.60
2023-04-08T16:23:24.610Z,94.50
2023-04-08T16:25:51.835Z,95.10
2023-04-08T16:28:18.580Z,95.80
2023-04-08T16:30:47.456Z,96.30
2023-04-08T16:33:14.295Z,96.90
2023-04-08T16:35:40.831Z,97.70
2023-04-08T16:38:07.402Z,99.50
2023-04-08T16:40:34.705Z,99.90
2023-04-08T16:43:02.485Z,99.90
2023-04-08T16:45:30.154Z,99.90
2023-04-08T16:47:57.293Z,99.90
2023-04-08T16:50:24.315Z,99.90
2023-04-08T16:52:50.860Z,99.90
2023-04-08T16:55:18.185Z,99.90
2023-04-08T16:57:44.796Z,99.90
2023-04-08T17:00:11.843Z,99.90
2023-04-08T17:02:38.497Z,99.90
2023-04-08T17:05:05.524Z,99.90
2023-04-08T17:07:32.820Z,99.90
2023-04-08T17:10:00.062Z,99.90
2023-04-08T17:12:26.742Z,99.90
2023-04-08T17:14:53.324Z,99.90
2023-04-08T17:17:19.875Z,99.90
2023-04-08T17:19:47.056Z,99.90
2023-04-08T17:22:13.626Z,99.90
2023-04-08T17:24:40.424Z,99.90
2023-04-08T17:27:06.938Z,99.90
2023-04-08T17:29:33.435Z,99.90
2023-04-08T17:32:01.234Z,99.90
2023-04-08T17:34:29.100Z,99.90
2023-04-08T17:36:56.655Z,99.90
2023-04-08T17:39:23.264Z,99.90
2023-04-08T17:41:49.762Z,99.90
2023-04-08T17:44:17.020Z,99.90
2023-04-08T17:46:43.590Z,99.90
2023-04-08T17:49:12.641Z,99.90
2023-04-08T17:51:39.171Z,99.90
2023-04-08T17:54:05.828Z,99.90
2023-04-08T17:56:33.217Z,99.90
2023-04-08T17:58:59.746Z,99.90
2023-04-08T18:01:26.328Z,99.90
2023-04-08T18:03:53.157Z,99.90
2023-04-08T18:06:20.089Z,99.90
2023-04-08T18:08:46.594Z,99.90
2023-04-08T18:11:13.178Z,99.90
2023-04-08T18:13:39.712Z,99.90
2023-04-08T18:16:06.611Z,99.90
2023-04-08T18:18:33.147Z,99.90
2023-04-08T18:20:59.904Z,99.90
2023-04-08T18:23:27.142Z,99.90
2023-04-08T18:25:53.636Z,99.90
2023-04-08T18:28:22.263Z,99.90
2023-04-08T18:30:52.676Z,99.90
2023-04-08T18:33:19.273Z,99.90
2023-04-08T18:35:45.842Z,99.90
2023-04-08T18:38:12.412Z,99.90
2023-04-08T18:40:38.986Z,99.90
2023-04-08T18:43:05.902Z,99.90
2023-04-08T18:45:32.465Z,99.90
2023-04-08T18:47:59.248Z,99.90
2023-04-08T18:50:25.841Z,99.90
2023-04-08T18:52:52.814Z,99.90
2023-04-08T18:55:19.434Z,99.90
2023-04-08T18:57:46.262Z,99.90
2023-04-08T19:00:12.931Z,99.90
2023-04-08T19:02:39.522Z,99.90
2023-04-08T19:05:07.102Z,99.90
2023-04-08T19:07:34.144Z,99.90
2023-04-08T19:10:00.851Z,99.90
2023-04-08T19:12:27.435Z,99.90
2023-04-08T19:14:54.163Z,99.90
2023-04-08T19:17:20.887Z,99.90
2023-04-08T19:19:47.438Z,99.90
2023-04-08T19:22:13.945Z,99.90
2023-04-08T19:24:40.495Z,99.90
2023-04-08T19:27:07.089Z,99.90
2023-04-08T19:29:34.313Z,99.90
2023-04-08T19:32:01.543Z,99.90
2023-04-08T19:34:28.432Z,99.90
2023-04-08T19:36:55.139Z,99.90
2023-04-08T19:39:23.059Z,99.90
2023-04-08T19:41:51.245Z,99.90
2023-04-08T19:44:17.823Z,99.90
2023-04-08T19:46:44.437Z,99.90
2023-04-08T19:49:11.225Z,99.90
2023-04-08T19:51:37.916Z,99.90
2023-04-08T19:54:04.572Z,99.90
2023-04-08T19:56:33.855Z,99.90
2023-04-08T19:59:01.765Z,99.90
2023-04-08T20:01:28.939Z,99.90
2023-04-08T20:03:55.593Z,99.90
2023-04-08T20:06:23.003Z,99.90
2023-04-08T20:08:52.093Z,99.90
2023-04-08T20:11:19.182Z,99.90
2023-04-08T20:13:46.894Z,99.90
2023-04-08T20:16:13.792Z,99.90
2023-04-08T20:18:40.406Z,99.90
2023-04-08T20:21:07.923Z,99.90
2023-04-08T20:23:34.438Z,99.90
2023-04-08T20:26:01.566Z,99.90
2023-04-08T20:28:28.128Z,99.90
2023-04-08T20:30:54.684Z,99.90
2023-04-08T20:33:21.310Z,99.90
2023-04-08T20:35:50.529Z,99.90
2023-04-08T20:38:17.154Z,99.90
2023-04-08T20:40:46.720Z,99.90
2023-04-08T20:43:13.327Z,99.90
2023-04-08T20:45:39.871Z,99.90
2023-04-08T20:48:07.273Z,99.90
2023-04-08T20:50:34.375Z,99.90
2023-04-08T20:53:01.320Z,99.90
2023-04-08T20:55:28.104Z,99.90
2023-04-08T20:57:54.655Z,99.90
2023-04-08T21:00:21.311Z,99.90
2023-04-08T21:02:48.547Z,99.90
2023-04-08T21:05:15.449Z,99.90
2023-04-08T21:07:44.361Z,99.90
2023-04-08T21:10:14.008Z,99.90
2023-04-08T21:12:40.521Z,99.90
2023-04-08T21:15:07.573Z,99.90
2023-04-08T21:17:34.297Z,99.90
2023-04-08T21:20:00.959Z,99.90
2023-04-08T21:22:27.521Z,99.90
2023-04-08T21:24:55.880Z,99.90
2023-04-08T21:27:22.485Z,99.90
2023-04-08T21:29:52.533Z,99.90
2023-04-08T21:32:19.680Z,99.90
2023-04-08T21:34:46.342Z,99.90
2023-04-08T21:37:12.986Z,99.90
2023-04-08T21:39:39.591Z,99.90
2023-04-08T21:42:06.333Z,99.90
2023-04-08T21:44:33.149Z,99.90
2023-04-08T21:47:01.668Z,99.90
2023-04-08T21:49:29.854Z,99.90
2023-04-08T21:51:56.455Z,99.90
2023-04-08T21:54:23.052Z,99.90
2023-04-08T21:56:49.721Z,99.90
2023-04-08T21:59:16.312Z,99.90
2023-04-08T22:01:42.933Z,99.90
2023-04-08T22:04:09.755Z,99.90
2023-04-08T22:06:36.352Z,99.90
2023-04-08T22:09:03.421Z,99.90
2023-04-08T22:11:30.609Z,99.90
2023-04-08T22:13:57.145Z,99.90
2023-04-08T22:16:23.734Z,99.90
2023-04-08T22:18:51.031Z,99.90
2023-04-08T22:21:17.816Z,99.90
2023-04-08T22:23:45.267Z,99.90
2023-04-08T22:26:12.712Z,99.90
2023-04-08T22:28:39.605Z,99.90
2023-04-08T22:31:10.749Z,99.90
2023-04-08T22:33:37.987Z,99.90
2023-04-08T22:36:05.659Z,99.90
2023-04-08T22:38:32.667Z,99.90
2023-04-08T22:40:59.184Z,99.90
2023-04-08T22:43:26.136Z,99.90
2023-04-08T22:45:52.805Z,99.90
2023-04-08T22:48:19.375Z,99.90
2023-04-08T22:50:45.979Z,99.90
2023-04-08T22:53:12.917Z,99.90
2023-04-08T22:55:39.426Z,99.90
2023-04-08T22:58:05.946Z,99.90
2023-04-08T23:00:32.475Z,99.90
2023-04-08T23:02:59.079Z,99.90
2023-04-08T23:05:25.939Z,99.90
2023-04-08T23:07:52.467Z,99.90
2023-04-08T23:10:19.051Z,99.90
2023-04-08T23:12:45.593Z,99.90
2023-04-08T23:15:12.115Z,99.90
2023-04-08T23:17:38.643Z,99.90
2023-04-08T23:20:06.375Z,99.90
2023-04-08T23:22:32.877Z,99.90
2023-04-08T23:24:59.378Z,99.90
2023-04-08T23:27:25.926Z,99.90
2023-04-08T23:29:52.446Z,99.90
2023-04-08T23:32:19.004Z,99.90
2023-04-08T23:34:45.693Z,99.90
2023-04-08T23:37:12.238Z,99.90
2023-04-08T23:39:38.767Z,99.90
2023-04-08T23:42:05.421Z,99.90
2023-04-08T23:44:31.952Z,99.90
2023-04-08T23:46:58.487Z,99.90
2023-04-08T23:49:25.229Z,99.90
2023-04-08T23:51:53.423Z,99.90
2023-04-08T23:54:20.167Z,99.90
2023-04-08T23:56:46.744Z,99.90
2023-04-08T23:59:13.297Z,99.90
